Time;durP1;ratioP1;P1;durP2;ratioP2;P2;SDS_P1;SDS_P2;PMS_P1;PMS_P2;Temp;Humidity;BMP_temperature;BMP_pressure;BME280_temperature;BME280_humidity;BME280_pressure;Samples;Min_cycle;Max_cycle;Signal;HPM_P1;HPM_P2
2022/12/20 00:00:18;;;;;;;49.45;26.58;;;;;;;-1.29;100.00;96515.66;1030685;28;20401;-70
2022/12/20 00:00:49;;;;;;;53.30;25.70;;;;;;;-1.28;100.00;96515.47;1026947;28;20065;-70
2022/12/20 00:01:28;;;;;;;53.47;25.17;;;;;;;-1.31;100.00;96512.44;1030738;28;20475;-70
2022/12/20 00:01:58;;;;;;;50.46;24.30;;;;;;;-1.35;100.00;96504.25;1026483;28;20018;-70
2022/12/20 00:02:28;;;;;;;49.63;24.48;;;;;;;-1.35;100.00;96511.19;1026505;28;20042;-70
2022/12/20 00:02:59;;;;;;;46.45;24.63;;;;;;;-1.31;100.00;96513.25;1030939;28;20018;-70
2022/12/20 00:03:29;;;;;;;51.90;23.48;;;;;;;-1.29;100.00;96508.72;1030647;28;20034;-70
2022/12/20 00:04:01;;;;;;;47.63;23.50;;;;;;;-1.35;100.00;96504.25;1026526;28;20026;-70
2022/12/20 00:04:32;;;;;;;43.34;23.50;;;;;;;-1.32;100.00;96511.63;1022942;28;20707;-72
2022/12/20 00:05:02;;;;;;;46.80;22.50;;;;;;;-1.30;100.00;96507.13;1026698;28;20027;-73
2022/12/20 00:05:36;;;;;;;48.08;23.73;;;;;;;-1.33;100.00;96502.31;1018727;28;20027;-71
2022/12/20 00:06:06;;;;;;;47.44;22.88;;;;;;;-1.37;100.00;96498.50;1027611;28;20493;-71
2022/12/20 00:06:37;;;;;;;46.70;22.05;;;;;;;-1.33;100.00;96507.47;1026988;28;20018;-70
2022/12/20 00:07:07;;;;;;;48.05;22.50;;;;;;;-1.33;100.00;96510.03;1027169;28;20129;-71
2022/12/20 00:07:37;;;;;;;47.75;22.35;;;;;;;-1.32;100.00;96503.91;1030862;28;20026;-70
2022/12/20 00:08:08;;;;;;;48.67;21.33;;;;;;;-1.34;100.00;96505.03;1030849;28;20018;-71
2022/12/20 00:08:38;;;;;;;44.40;21.98;;;;;;;-1.35;100.00;96503.44;1031335;28;20133;-69
2022/12/20 00:09:10;;;;;;;47.50;22.50;;;;;;;-1.32;100.00;96508.25;1034697;28;20395;-70
2022/12/20 00:09:41;;;;;;;48.04;22.86;;;;;;;-1.35;100.00;96509.41;1026788;28;20055;-70
2022/12/20 00:10:12;;;;;;;44.92;21.45;;;;;;;-1.36;100.00;96501.84;1026840;28;20026;-70
2022/12/20 00:10:43;;;;;;;44.10;21.86;;;;;;;-1.38;100.00;96502.00;1026684;28;20562;-69
2022/12/20 00:11:14;;;;;;;46.84;22.06;;;;;;;-1.36;100.00;96507.81;1023511;28;20605;-69
2022/12/20 00:11:44;;;;;;;48.72;22.70;;;;;;;-1.38;100.00;96502.00;1022511;29;20023;-71
2022/12/20 00:12:15;;;;;;;43.58;22.10;;;;;;;-1.41;100.00;96499.78;1028775;28;20050;-70
2022/12/20 00:12:45;;;;;;;44.05;21.02;;;;;;;-1.43;100.00;96487.09;1034936;28;20471;-70
2022/12/20 00:13:16;;;;;;;47.85;21.70;;;;;;;-1.35;100.00;96504.25;1035033;28;20054;-70
2022/12/20 00:13:46;;;;;;;50.47;22.55;;;;;;;-1.34;100.00;96503.31;1038920;28;20010;-71
2022/12/20 00:14:17;;;;;;;46.42;21.42;;;;;;;-1.45;100.00;96486.44;1038830;28;20523;-70
2022/12/20 00:14:47;;;;;;;43.80;22.35;;;;;;;-1.36;100.00;96502.66;1030470;28;20022;-69
2022/12/20 00:15:18;;;;;;;48.75;23.40;;;;;;;-1.52;100.00;96471.84;1031077;28;20032;-71
2022/12/20 00:15:48;;;;;;;45.05;23.92;;;;;;;-1.38;100.00;96502.00;1029869;28;20061;-72
2022/12/20 00:16:20;;;;;;;44.53;21.65;;;;;;;-1.37;100.00;96506.22;1034791;28;20815;-69
2022/12/20 00:16:50;;;;;;;48.84;23.46;;;;;;;-1.47;100.00;96497.91;1034832;28;20395;-69
2022/12/20 00:17:21;;;;;;;52.88;23.52;;;;;;;-1.45;100.00;96498.50;1030440;28;20044;-71
2022/12/20 00:17:51;;;;;;;47.47;23.15;;;;;;;-1.45;100.00;96493.38;1030963;28;20450;-70
2022/12/20 00:18:22;;;;;;;50.00;23.20;;;;;;;-1.53;100.00;96485.69;1038940;28;20022;-70
2022/12/20 00:18:53;;;;;;;49.75;24.25;;;;;;;-1.49;100.00;96497.25;1034406;28;20029;-72
2022/12/20 00:19:24;;;;;;;52.18;23.66;;;;;;;-1.48;100.00;96493.69;1030769;28;20046;-71
2022/12/20 00:19:54;;;;;;;43.88;22.67;;;;;;;-1.49;100.00;96499.81;1030888;28;20014;-70
2022/12/20 00:20:25;;;;;;;54.60;24.10;;;;;;;-1.47;100.00;96492.75;1030867;28;20040;-70
2022/12/20 00:20:59;;;;;;;50.88;24.08;;;;;;;-1.53;100.00;96485.69;1038297;28;20481;-71
2022/12/20 00:21:30;;;;;;;54.46;24.78;;;;;;;-1.52;100.00;96482.13;1030757;28;20106;-69
2022/12/20 00:22:00;;;;;;;51.58;23.90;;;;;;;-1.50;100.00;96487.94;1026917;28;20049;-72
2022/12/20 00:22:31;;;;;;;55.50;24.55;;;;;;;-1.50;100.00;96487.94;1030556;28;20042;-73
2022/12/20 00:23:01;;;;;;;50.50;24.35;;;;;;;-1.49;100.00;96486.97;1034696;28;20462;-70
2022/12/20 00:23:32;;;;;;;53.55;24.48;;;;;;;-1.50;100.00;96486.16;1030921;28;20023;-70
2022/12/20 00:24:04;;;;;;;49.13;22.92;;;;;;;-1.50;100.00;96483.59;1026674;28;20019;-70
2022/12/20 00:24:34;;;;;;;56.88;24.70;;;;;;;-1.51;100.00;96494.03;1030528;28;20564;-72
2022/12/20 00:25:05;;;;;;;45.65;23.50;;;;;;;-1.51;100.00;96484.56;1018652;29;20027;-68
2022/12/20 00:25:36;;;;;;;53.68;25.08;;;;;;;-1.52;100.00;96482.94;1022214;28;20086;-70
2022/12/20 00:26:11;;;;;;;49.55;22.67;;;;;;;-1.49;100.00;96492.09;1022873;28;20078;-72
2022/12/20 00:26:42;;;;;;;55.24;23.28;;;;;;;-1.49;100.00;96486.97;1022794;29;20437;-72
2022/12/20 00:27:12;;;;;;;49.05;24.25;;;;;;;-1.49;100.00;96486.97;1017685;29;20039;-73
2022/12/20 00:27:43;;;;;;;53.10;24.45;;;;;;;-1.54;100.00;96474.59;1020227;28;20043;-71
2022/12/20 00:28:13;;;;;;;55.95;25.25;;;;;;;-1.51;100.00;96484.56;1022882;28;20609;-70
2022/12/20 00:28:44;;;;;;;52.10;24.15;;;;;;;-1.47;100.00;96482.44;1026437;28;20122;-70
2022/12/20 00:29:14;;;;;;;55.38;24.90;;;;;;;-1.48;100.00;96483.41;1030616;28;20073;-70
2022/12/20 00:29:45;;;;;;;48.50;23.60;;;;;;;-1.52;100.00;96477.00;1026536;28;20015;-70
2022/12/20 00:30:15;;;;;;;58.58;25.75;;;;;;;-1.47;100.00;96485.81;1026973;28;20703;-70
2022/12/20 00:30:46;;;;;;;48.88;23.88;;;;;;;-1.45;100.00;96483.06;1026295;28;20113;-70
2022/12/20 00:31:18;;;;;;;54.60;25.30;;;;;;;-1.50;100.00;96475.88;1022321;29;20041;-70
2022/12/20 00:31:48;;;;;;;52.58;24.54;;;;;;;-1.46;100.00;96481.47;1034821;28;20041;-72
2022/12/20 00:32:19;;;;;;;55.00;25.30;;;;;;;-1.45;100.00;96488.22;1038907;28;20017;-71
2022/12/20 00:32:49;;;;;;;57.45;25.38;;;;;;;-1.46;100.00;96482.28;1042171;28;20020;-71
2022/12/20 00:33:20;;;;;;;55.08;23.35;;;;;;;-1.52;100.00;96470.06;1034934;28;20017;-70
2022/12/20 00:33:51;;;;;;;50.80;23.05;;;;;;;-1.47;100.00;96479.88;1030581;28;20106;-70
2022/12/20 00:34:22;;;;;;;54.80;23.86;;;;;;;-1.49;100.00;96474.88;1026978;28;20015;-71
2022/12/20 00:34:52;;;;;;;50.80;23.85;;;;;;;-1.46;100.00;96478.91;1026418;28;20085;-71
2022/12/20 00:35:23;;;;;;;52.60;23.95;;;;;;;-1.45;100.00;96473.56;1026610;28;20019;-70
2022/12/20 00:35:55;;;;;;;52.95;23.33;;;;;;;-1.41;100.00;96486.91;1021909;29;20027;-70
2022/12/20 00:36:26;;;;;;;46.68;22.20;;;;;;;-1.42;100.00;96485.31;1022593;28;20024;-70
2022/12/20 00:36:57;;;;;;;50.12;23.62;;;;;;;-1.43;100.00;96481.94;1030613;28;20432;-72
2022/12/20 00:37:27;;;;;;;53.17;23.20;;;;;;;-1.40;100.00;96483.38;1030826;28;20052;-70
2022/12/20 00:37:58;;;;;;;52.33;23.15;;;;;;;-1.40;100.00;96487.72;1030088;28;20825;-70
2022/12/20 00:38:28;;;;;;;49.20;23.33;;;;;;;-1.44;100.00;96482.13;1018845;29;20024;-70
2022/12/20 00:38:59;;;;;;;54.08;25.30;;;;;;;-1.49;100.00;96479.22;1026547;28;20019;-71
2022/12/20 00:39:29;;;;;;;57.00;25.48;;;;;;;-1.46;100.00;96491.78;1034653;28;20072;-71
2022/12/20 00:40:00;;;;;;;52.58;25.02;;;;;;;-1.48;100.00;96493.69;1033246;28;20022;-71
2022/12/20 00:40:30;;;;;;;59.92;24.80;;;;;;;-1.47;100.00;96487.59;1038408;28;20543;-69
2022/12/20 00:41:03;;;;;;;55.75;24.48;;;;;;;-1.50;100.00;96485.38;1034734;28;20014;-71
2022/12/20 00:41:33;;;;;;;50.40;25.06;;;;;;;-1.47;100.00;96490.19;1030549;28;20462;-72
2022/12/20 00:42:04;;;;;;;52.13;25.05;;;;;;;-1.51;100.00;96491.47;1030400;28;20019;-71
2022/12/20 00:42:34;;;;;;;54.13;24.45;;;;;;;-1.49;100.00;96487.75;1026786;28;20142;-70
2022/12/20 00:43:05;;;;;;;51.85;24.05;;;;;;;-1.58;100.00;96481.03;1022490;29;20023;-70
2022/12/20 00:43:36;;;;;;;59.58;25.27;;;;;;;-1.59;100.00;96474.28;1030802;28;20029;-72
2022/12/20 00:44:06;;;;;;;51.33;24.00;;;;;;;-1.51;100.00;96486.31;1030644;28;20025;-70
2022/12/20 00:44:37;;;;;;;53.60;24.08;;;;;;;-1.60;100.00;96469.31;1030511;28;20022;-71
2022/12/20 00:45:08;;;;;;;54.15;24.45;;;;;;;-1.55;100.00;96487.63;1026107;28;20027;-73
2022/12/20 00:45:38;;;;;;;45.28;23.40;;;;;;;-1.55;100.00;96485.84;1030004;28;20037;-70
2022/12/20 00:46:13;;;;;;;48.63;24.23;;;;;;;-1.56;100.00;96480.88;1030231;28;20888;-70
2022/12/20 00:46:43;;;;;;;49.80;24.12;;;;;;;-1.55;100.00;96487.63;1030565;28;20147;-70
2022/12/20 00:47:14;;;;;;;54.78;23.92;;;;;;;-1.56;100.00;96491.16;1027881;28;20019;-71
2022/12/20 00:47:44;;;;;;;49.63;23.80;;;;;;;-1.54;100.00;96489.22;1034539;28;20360;-70
2022/12/20 00:48:15;;;;;;;49.92;23.38;;;;;;;-1.54;100.00;96489.22;1027068;28;20030;-70
2022/12/20 00:48:45;;;;;;;49.65;25.10;;;;;;;-1.58;100.00;96483.59;1022572;28;20035;-71
2022/12/20 00:49:16;;;;;;;62.38;24.58;;;;;;;-1.53;100.00;96491.63;1022747;29;20679;-70
2022/12/20 00:49:46;;;;;;;60.35;25.08;;;;;;;-1.53;100.00;96493.41;1022447;29;20800;-70
2022/12/20 00:50:17;;;;;;;49.60;23.65;;;;;;;-1.59;100.00;96476.88;1022264;29;20070;-70
2022/12/20 00:50:47;;;;;;;49.22;24.20;;;;;;;-1.53;100.00;96496.00;1026392;28;20027;-71
2022/12/20 00:51:19;;;;;;;51.03;23.75;;;;;;;-1.50;100.00;96496.44;1026636;28;20007;-70
2022/12/20 00:51:50;;;;;;;47.44;23.40;;;;;;;-1.51;100.00;96497.44;1026546;28;20019;-70
2022/12/20 00:52:20;;;;;;;56.75;25.00;;;;;;;-1.50;100.00;96493.09;1018938;28;20023;-69
2022/12/20 00:52:51;;;;;;;54.55;23.75;;;;;;;-1.49;100.00;96498.03;1022089;28;20110;-70
2022/12/20 00:53:21;;;;;;;49.35;24.27;;;;;;;-1.57;100.00;96492.94;1026219;28;20921;-71
2022/12/20 00:53:52;;;;;;;57.42;25.10;;;;;;;-1.53;100.00;96503.72;1026577;28;20026;-70
2022/12/20 00:54:22;;;;;;;55.75;23.45;;;;;;;-1.53;100.00;96496.00;1026575;28;20031;-70
2022/12/20 00:54:53;;;;;;;46.58;22.65;;;;;;;-1.51;100.00;96499.19;1030822;28;20475;-70
2022/12/20 00:55:23;;;;;;;51.90;23.92;;;;;;;-1.51;100.00;96504.31;1026052;28;20038;-71
2022/12/20 00:55:54;;;;;;;50.17;25.05;;;;;;;-1.53;100.00;96501.13;1029805;28;20033;-71
2022/12/20 00:56:24;;;;;;;47.22;23.45;;;;;;;-1.56;100.00;96491.16;1030559;28;20468;-70
2022/12/20 00:56:55;;;;;;;52.72;24.15;;;;;;;-1.51;100.00;96500.00;1028477;28;20050;-72
2022/12/20 00:57:25;;;;;;;51.15;24.45;;;;;;;-1.54;100.00;96499.50;1034710;28;20495;-70
2022/12/20 00:57:56;;;;;;;56.38;23.08;;;;;;;-1.52;100.00;96497.59;1026466;28;20066;-72
2022/12/20 00:58:26;;;;;;;52.97;23.05;;;;;;;-1.53;100.00;96501.94;1022263;28;20043;-70
2022/12/20 00:58:58;;;;;;;45.85;22.63;;;;;;;-1.54;100.00;96496.94;1026591;28;20468;-70
2022/12/20 00:59:28;;;;;;;55.58;23.56;;;;;;;-1.52;100.00;96497.59;1022492;29;20024;-70
2022/12/20 00:59:59;;;;;;;43.67;21.27;;;;;;;-1.48;100.00;96509.13;1022540;29;20023;-70
2022/12/20 01:00:29;;;;;;;49.13;23.15;;;;;;;-1.56;100.00;96494.53;1025630;28;20047;-71
2022/12/20 01:01:00;;;;;;;49.90;23.63;;;;;;;-1.57;100.00;96489.59;1026548;28;20026;-72
2022/12/20 01:01:31;;;;;;;52.90;24.02;;;;;;;-1.50;100.00;96505.94;1026608;28;20025;-72
2022/12/20 01:02:01;;;;;;;47.84;22.98;;;;;;;-1.52;100.00;96500.94;1026567;28;20023;-70
2022/12/20 01:02:32;;;;;;;47.33;22.88;;;;;;;-1.51;100.00;96502.56;1030642;28;20034;-69
2022/12/20 01:03:03;;;;;;;53.55;24.42;;;;;;;-1.51;100.00;96494.03;1026671;28;20074;-68
2022/12/20 01:03:33;;;;;;;53.55;22.23;;;;;;;-1.48;100.00;96499.63;1026590;28;20529;-70
2022/12/20 01:04:04;;;;;;;46.17;22.58;;;;;;;-1.50;100.00;96504.16;1030449;28;20026;-71
2022/12/20 01:04:34;;;;;;;49.15;23.30;;;;;;;-1.50;100.00;96504.16;1022641;29;20019;-70
2022/12/20 01:05:05;;;;;;;46.25;22.33;;;;;;;-1.50;100.00;96505.94;1026272;28;20524;-70
2022/12/20 01:05:35;;;;;;;50.15;22.75;;;;;;;-1.55;100.00;96497.91;1021741;28;20125;-71
2022/12/20 01:06:06;;;;;;;46.83;21.58;;;;;;;-1.51;100.00;96499.19;1026393;28;20135;-72
2022/12/20 01:06:37;;;;;;;53.28;22.65;;;;;;;-1.54;100.00;96497.75;1022677;29;20742;-70
2022/12/20 01:07:07;;;;;;;50.97;23.05;;;;;;;-1.54;100.00;96497.75;1022252;29;20520;-69
2022/12/20 01:07:37;;;;;;;49.25;22.58;;;;;;;-1.52;100.00;96498.38;1030533;28;20025;-71
2022/12/20 01:08:08;;;;;;;52.42;23.67;;;;;;;-1.56;100.00;96484.25;1030388;28;20582;-73
2022/12/20 01:08:39;;;;;;;43.75;21.27;;;;;;;-1.50;100.00;96493.88;1030749;28;20014;-70
2022/12/20 01:09:10;;;;;;;48.55;21.88;;;;;;;-1.55;100.00;96487.63;1030267;28;20011;-70
2022/12/20 01:09:40;;;;;;;54.62;23.82;;;;;;;-1.49;100.00;96495.47;1026500;28;20025;-71
2022/12/20 01:10:11;;;;;;;47.90;22.63;;;;;;;-1.48;100.00;96497.06;1030731;28;20039;-70
2022/12/20 01:10:41;;;;;;;48.92;22.00;;;;;;;-1.48;100.00;96494.50;1022195;29;20023;-70
2022/12/20 01:11:25;;;;;;;54.38;22.45;;;;;;;-1.55;100.00;96483.28;1022658;28;20080;-71
2022/12/20 01:11:56;;;;;;;51.26;22.92;;;;;;;-1.45;100.00;96488.22;1028411;28;20027;-71
2022/12/20 01:12:26;;;;;;;54.13;23.48;;;;;;;-1.45;100.00;96490.78;1034400;28;20054;-72
2022/12/20 01:12:57;;;;;;;44.50;21.73;;;;;;;-1.44;100.00;96489.84;1035029;28;20013;-71
2022/12/20 01:13:28;;;;;;;52.63;23.10;;;;;;;-1.47;100.00;96490.19;1031017;28;20591;-70
2022/12/20 01:14:00;;;;;;;47.58;21.70;;;;;;;-1.51;100.00;96479.41;1023236;28;20089;-72
2022/12/20 01:14:30;;;;;;;48.26;21.96;;;;;;;-1.49;100.00;96479.22;1023041;29;20470;-70
2022/12/20 01:15:04;;;;;;;48.94;21.36;;;;;;;-1.44;100.00;96485.50;1019493;29;20016;-71
2022/12/20 01:15:35;;;;;;;43.13;22.10;;;;;;;-1.46;100.00;96489.19;1019713;28;20027;-70
2022/12/20 01:16:10;;;;;;;47.30;22.30;;;;;;;-1.47;100.00;96485.03;1027390;28;20023;-70
2022/12/20 01:16:42;;;;;;;45.94;22.34;;;;;;;-1.46;100.00;96495.13;1025303;28;20046;-72
2022/12/20 01:17:12;;;;;;;49.24;23.82;;;;;;;-1.47;100.00;96487.59;1026112;28;20033;-71
2022/12/20 01:17:43;;;;;;;53.25;23.45;;;;;;;-1.47;100.00;96485.81;1027791;28;20091;-69
2022/12/20 01:18:13;;;;;;;52.30;22.95;;;;;;;-1.44;100.00;96489.84;1027970;28;20768;-70
2022/12/20 01:18:44;;;;;;;46.67;22.08;;;;;;;-1.44;100.00;96488.06;1030657;28;20030;-71
2022/12/20 01:19:16;;;;;;;48.55;22.02;;;;;;;-1.43;100.00;96491.44;1034438;28;20561;-73
2022/12/20 01:19:46;;;;;;;47.16;22.54;;;;;;;-1.43;100.00;96486.28;1034427;28;20046;-72
2022/12/20 01:20:17;;;;;;;45.42;22.00;;;;;;;-1.41;100.00;96486.91;1034956;28;20060;-71
2022/12/20 01:20:47;;;;;;;42.67;23.08;;;;;;;-1.41;100.00;96486.91;1026500;28;20022;-70
2022/12/20 01:21:19;;;;;;;48.88;23.30;;;;;;;-1.42;100.00;96482.72;1022520;28;20045;-70
2022/12/20 01:21:52;;;;;;;48.60;22.38;;;;;;;-1.39;100.00;96489.31;1018572;29;20015;-70
2022/12/20 01:22:23;;;;;;;49.32;22.40;;;;;;;-1.40;100.00;96485.16;1019215;29;20028;-72
2022/12/20 01:22:53;;;;;;;53.13;22.83;;;;;;;-1.43;100.00;96479.38;1023213;28;20027;-70
2022/12/20 01:23:24;;;;;;;51.13;21.65;;;;;;;-1.40;100.00;96485.94;1027714;28;20023;-70
2022/12/20 01:23:55;;;;;;;45.80;22.23;;;;;;;-1.45;100.00;96483.06;1026270;28;20030;-70
2022/12/20 01:24:25;;;;;;;51.47;24.00;;;;;;;-1.40;100.00;96485.94;1026639;28;20595;-71
2022/12/20 01:24:55;;;;;;;44.90;21.48;;;;;;;-1.42;100.00;96487.88;1026610;28;20058;-71
2022/12/20 01:25:26;;;;;;;49.13;22.90;;;;;;;-1.41;100.00;96492.06;1022458;28;20756;-73
2022/12/20 01:25:58;;;;;;;50.45;22.65;;;;;;;-1.42;100.00;96491.25;1025958;28;20048;-69
2022/12/20 01:26:29;;;;;;;44.54;21.12;;;;;;;-1.46;100.00;96486.63;1030512;28;20101;-71
2022/12/20 01:26:59;;;;;;;46.03;23.35;;;;;;;-1.42;100.00;96493.03;1026306;28;20533;-71
2022/12/20 01:27:29;;;;;;;50.40;23.55;;;;;;;-1.41;100.00;96494.63;1034253;28;20018;-70
2022/12/20 01:28:00;;;;;;;49.83;22.58;;;;;;;-1.44;100.00;96490.63;1026352;28;20049;-70
2022/12/20 01:28:31;;;;;;;45.35;22.83;;;;;;;-1.42;100.00;96498.19;1022626;29;20055;-70
2022/12/20 01:29:01;;;;;;;49.35;22.70;;;;;;;-1.40;100.00;96498.03;1022570;28;20103;-71
2022/12/20 01:29:31;;;;;;;51.30;23.48;;;;;;;-1.41;100.00;96499.78;1030455;28;20026;-70
2022/12/20 01:30:02;;;;;;;44.40;21.63;;;;;;;-1.40;100.00;96500.59;1022210;29;20310;-71
2022/12/20 01:30:33;;;;;;;52.30;22.80;;;;;;;-1.41;100.00;96502.34;1026747;28;20022;-71
2022/12/20 01:31:10;;;;;;;45.55;22.08;;;;;;;-1.43;100.00;96504.31;1022185;28;20019;-71
2022/12/20 01:31:41;;;;;;;49.64;22.80;;;;;;;-1.42;100.00;96505.91;1025693;28;20019;-72
2022/12/20 01:32:11;;;;;;;51.20;22.52;;;;;;;-1.43;100.00;96497.38;1026466;28;20495;-70
2022/12/20 01:32:42;;;;;;;50.08;22.83;;;;;;;-1.42;100.00;96498.19;1027416;28;20018;-71
2022/12/20 01:33:12;;;;;;;44.90;21.73;;;;;;;-1.40;100.00;96501.41;1030454;28;20023;-70
2022/12/20 01:33:43;;;;;;;48.45;21.20;;;;;;;-1.43;100.00;96491.44;1030609;28;20014;-70
2022/12/20 01:34:14;;;;;;;49.35;21.88;;;;;;;-1.44;100.00;96495.00;1038453;28;20021;-71
2022/12/20 01:34:44;;;;;;;48.88;22.25;;;;;;;-1.43;100.00;96496.59;1034662;28;20790;-70
2022/12/20 01:35:15;;;;;;;45.45;21.15;;;;;;;-1.46;100.00;96484.06;1030660;28;20026;-72
2022/12/20 01:36:01;;;;;;;48.28;22.75;;;;;;;-1.45;100.00;96490.78;1034113;28;20453;-69
2022/12/20 01:36:33;;;;;;;44.00;21.90;;;;;;;-1.51;100.00;96483.75;1032533;28;20022;-70
2022/12/20 01:37:03;;;;;;;51.42;24.02;;;;;;;-1.47;100.00;96483.25;1028989;28;20015;-71
2022/12/20 01:37:34;;;;;;;49.22;21.75;;;;;;;-1.47;100.00;96487.59;1026486;28;20035;-71
2022/12/20 01:38:05;;;;;;;49.13;21.60;;;;;;;-1.46;100.00;96487.41;1022105;28;20059;-70
2022/12/20 01:38:35;;;;;;;49.97;22.65;;;;;;;-1.51;100.00;96473.44;1022968;28;20059;-70
2022/12/20 01:39:08;;;;;;;43.33;21.25;;;;;;;-1.45;100.00;96483.06;1018640;29;20031;-71
2022/12/20 01:39:38;;;;;;;47.10;22.22;;;;;;;-1.51;100.00;96473.44;1018969;29;20024;-70
2022/12/20 01:40:09;;;;;;;49.08;21.80;;;;;;;-1.46;100.00;96481.47;1018485;29;20043;-70
2022/12/20 01:40:40;;;;;;;46.88;21.85;;;;;;;-1.48;100.00;96478.25;1022965;28;20031;-70
2022/12/20 01:41:17;;;;;;;50.45;22.55;;;;;;;-1.52;100.00;96471.84;1026678;28;20104;-70
2022/12/20 01:41:47;;;;;;;49.66;23.36;;;;;;;-1.46;100.00;96481.47;1034408;28;20068;-70
2022/12/20 01:42:18;;;;;;;49.47;22.48;;;;;;;-1.52;100.00;96477.78;1037473;28;20036;-71
2022/12/20 01:42:48;;;;;;;49.20;21.75;;;;;;;-1.46;100.00;96484.06;1030709;28;20025;-70
2022/12/20 01:43:20;;;;;;;50.83;22.88;;;;;;;-1.49;100.00;96481.81;1034616;28;20029;-71
2022/12/20 01:43:52;;;;;;;45.06;21.02;;;;;;;-1.51;100.00;96478.59;1030773;28;20030;-71
2022/12/20 01:44:23;;;;;;;46.12;22.22;;;;;;;-1.44;100.00;96484.69;1030294;28;20018;-71
2022/12/20 01:44:54;;;;;;;47.00;22.27;;;;;;;-1.46;100.00;96486.63;1026418;28;20738;-70
2022/12/20 01:45:29;;;;;;;44.54;20.88;;;;;;;-1.47;100.00;96485.03;1030951;28;20018;-70
2022/12/20 01:45:59;;;;;;;49.66;21.30;;;;;;;-1.52;100.00;96479.56;1031180;28;20024;-70
2022/12/20 01:46:31;;;;;;;44.33;21.02;;;;;;;-1.46;100.00;96489.19;1030109;28;20381;-70
2022/12/20 01:47:02;;;;;;;44.90;20.52;;;;;;;-1.47;100.00;96474.72;1030503;28;20023;-72
2022/12/20 01:47:33;;;;;;;45.02;20.82;;;;;;;-1.44;100.00;96482.91;1026495;28;20019;-70
2022/12/20 01:48:03;;;;;;;38.30;20.33;;;;;;;-1.43;100.00;96476.00;1022488;28;20402;-70
2022/12/20 01:48:34;;;;;;;41.65;20.15;;;;;;;-1.42;100.00;96467.28;1026106;28;20080;-70
2022/12/20 01:49:05;;;;;;;42.80;20.80;;;;;;;-1.43;100.00;96471.66;1022377;28;20019;-70
2022/12/20 01:49:45;;;;;;;45.24;20.16;;;;;;;-1.44;100.00;96466.69;1026665;28;20019;-71
2022/12/20 01:50:16;;;;;;;47.67;20.27;;;;;;;-1.37;100.00;96475.31;1034244;28;20017;-70
2022/12/20 01:50:46;;;;;;;41.28;20.20;;;;;;;-1.35;100.00;96478.50;1030421;28;20026;-70
2022/12/20 01:51:17;;;;;;;41.45;20.75;;;;;;;-1.37;100.00;96475.31;1030234;28;20471;-71
2022/12/20 01:51:54;;;;;;;45.45;20.05;;;;;;;-1.36;100.00;96476.13;1030503;28;20504;-71
2022/12/20 01:52:54;;;;;;;46.68;21.04;;;;;;;-1.32;100.00;96474.81;1030291;28;20025;-70
2022/12/20 01:53:24;;;;;;;45.74;21.00;;;;;;;-1.32;100.00;96470.44;1022058;29;20089;-71
2022/12/20 01:53:58;;;;;;;41.60;19.50;;;;;;;-1.31;100.00;96472.06;1026648;28;20551;-70
2022/12/20 01:54:31;;;;;;;46.40;19.66;;;;;;;-1.34;100.00;96469.00;1026312;28;20535;-71
2022/12/20 01:55:07;;;;;;;40.72;20.68;;;;;;;-1.33;100.00;96474.00;1023079;28;20054;-71
2022/12/20 01:55:38;;;;;;;41.80;20.58;;;;;;;-1.33;100.00;96476.59;1029705;28;20033;-72
2022/12/20 01:56:08;;;;;;;45.53;21.25;;;;;;;-1.34;100.00;96474.97;1031615;28;20030;-70
2022/12/20 01:56:39;;;;;;;44.80;20.45;;;;;;;-1.37;100.00;96465.03;1022431;29;20023;-70
2022/12/20 01:57:24;;;;;;;47.13;20.45;;;;;;;-1.33;100.00;96476.59;1022238;28;20015;-70
2022/12/20 01:58:02;;;;;;;40.40;19.60;;;;;;;-1.27;100.00;96480.25;1030473;28;20018;-70
2022/12/20 01:58:33;;;;;;;39.30;18.66;;;;;;;-1.24;100.00;96475.56;1027632;28;20038;-70
2022/12/20 01:59:03;;;;;;;41.03;19.98;;;;;;;-1.25;100.00;96470.56;1034346;28;20017;-70
2022/12/20 01:59:37;;;;;;;42.38;21.40;;;;;;;-1.27;100.00;96469.97;1034370;28;20029;-72
2022/12/20 02:00:08;;;;;;;38.04;19.48;;;;;;;-1.19;100.00;96470.69;1029731;28;20042;-72
2022/12/20 02:00:39;;;;;;;40.18;19.28;;;;;;;-1.16;100.00;96476.50;1026488;28;20026;-72
2022/12/20 02:01:09;;;;;;;34.58;18.27;;;;;;;-1.12;100.00;96473.38;1026195;28;20018;-71
2022/12/20 02:01:41;;;;;;;35.10;18.40;;;;;;;-1.11;100.00;96476.75;1018712;29;20052;-73
2022/12/20 02:02:11;;;;;;;44.36;19.50;;;;;;;-1.12;100.00;96475.16;1022308;29;20019;-70
2022/12/20 02:02:43;;;;;;;41.30;19.52;;;;;;;-1.11;100.00;96474.19;1022336;29;20023;-73
2022/12/20 02:03:13;;;;;;;41.36;20.00;;;;;;;-1.13;100.00;96471.00;1022514;29;20015;-71
2022/12/20 02:03:44;;;;;;;38.75;21.65;;;;;;;-1.18;100.00;96471.50;1022307;29;20015;-73
2022/12/20 02:04:14;;;;;;;44.03;19.25;;;;;;;-1.12;100.00;96472.59;1022067;28;20054;-70
2022/12/20 02:04:45;;;;;;;38.08;19.13;;;;;;;-1.10;100.00;96471.47;1022979;28;20612;-70
2022/12/20 02:05:16;;;;;;;36.20;18.80;;;;;;;-1.12;100.00;96473.38;1022074;28;20075;-70
2022/12/20 02:05:47;;;;;;;44.00;19.86;;;;;;;-1.12;100.00;96475.97;1022221;28;20022;-71
2022/12/20 02:06:19;;;;;;;37.95;19.63;;;;;;;-1.14;100.00;96475.34;1026388;28;20038;-71
2022/12/20 02:06:50;;;;;;;44.18;18.32;;;;;;;-1.14;100.00;96479.69;1023309;28;20031;-70
2022/12/20 02:07:23;;;;;;;40.40;19.60;;;;;;;-1.21;100.00;96467.50;1030889;28;20026;-70
2022/12/20 02:07:54;;;;;;;42.58;18.86;;;;;;;-1.14;100.00;96477.94;1030461;28;20037;-70
2022/12/20 02:08:24;;;;;;;40.40;20.82;;;;;;;-1.15;100.00;96484.03;1027013;28;20743;-72
2022/12/20 02:08:57;;;;;;;39.10;19.42;;;;;;;-1.21;100.00;96466.69;1024983;28;20035;-69
2022/12/20 02:09:27;;;;;;;40.58;18.78;;;;;;;-1.16;100.00;96473.91;1030226;28;20018;-71
2022/12/20 02:09:58;;;;;;;35.78;18.50;;;;;;;-1.20;100.00;96473.44;1030295;28;20018;-70
2022/12/20 02:10:57;;;;;;;38.35;19.23;;;;;;;-1.13;100.00;96483.88;1034431;28;20049;-70
2022/12/20 02:12:01;;;;;;;40.06;18.88;;;;;;;-1.18;100.00;96479.22;1030194;28;20642;-70
2022/12/20 02:12:42;;;;;;;44.88;18.90;;;;;;;-1.25;100.00;96468.78;1018179;29;20028;-71
2022/12/20 02:13:26;;;;;;;39.06;17.84;;;;;;;-1.22;100.00;96477.97;1022836;28;20032;-70
2022/12/20 02:14:02;;;;;;;40.62;18.00;;;;;;;-1.22;100.00;96478.75;1032629;28;20015;-70
2022/12/20 02:15:04;;;;;;;41.68;18.66;;;;;;;-1.22;100.00;96478.75;1030249;28;20023;-70
2022/12/20 02:15:38;;;;;;;;;;;;;;;-1.21;100.00;96476.97;1036416;28;20065;-70
2022/12/20 02:16:08;;;;;;;36.50;18.62;;;;;;;-1.28;100.00;96468.34;1030614;28;20354;-70
2022/12/20 02:16:44;;;;;;;36.85;17.48;;;;;;;-1.25;100.00;96479.09;1034523;28;20022;-70
2022/12/20 02:17:34;;;;;;;39.40;18.24;;;;;;;-1.26;100.00;96471.56;1025803;28;20105;-70
2022/12/20 02:18:50;;;;;;;40.04;19.46;;;;;;;-1.27;100.00;96473.34;1022481;29;20015;-71
2022/12/20 02:19:43;;;;;;;39.38;18.70;;;;;;;-1.28;100.00;96473.50;1033975;28;20029;-70
2022/12/20 02:20:32;;;;;;;43.74;18.60;;;;;;;-1.29;100.00;96472.69;1034417;28;20107;-70
2022/12/20 02:21:02;;;;;;;36.44;17.60;;;;;;;-1.32;100.00;96467.88;1030390;28;20010;-70
2022/12/20 02:21:34;;;;;;;45.60;20.23;;;;;;;-1.35;100.00;96468.22;1030391;28;20109;-72
2022/12/20 02:22:17;;;;;;;42.00;20.08;;;;;;;-1.37;100.00;96466.81;1029023;28;20023;-70
2022/12/20 02:22:47;;;;;;;40.32;19.40;;;;;;;-1.39;100.00;96472.09;1032769;28;20030;-70
2022/12/20 02:23:44;;;;;;;42.00;20.10;;;;;;;-1.40;100.00;96462.78;1034756;28;20105;-72
2022/12/20 02:24:57;;;;;;;40.94;20.16;;;;;;;-1.43;100.00;96463.91;1037595;28;20051;-70
2022/12/20 02:25:41;;;;;;;45.02;19.16;;;;;;;-1.45;100.00;96463.28;1025995;28;20102;-69
2022/12/20 02:26:54;;;;;;;45.50;20.68;;;;;;;-1.49;100.00;96462.03;1030037;28;20381;-70
2022/12/20 02:27:27;;;;;;;44.52;19.64;;;;;;;-1.50;100.00;96455.28;1024718;28;20019;-71
2022/12/20 02:28:16;;;;;;;42.34;20.92;;;;;;;-1.51;100.00;96460.56;1026931;28;20023;-70
2022/12/20 02:29:11;;;;;;;47.82;21.16;;;;;;;-1.52;100.00;96464.13;1026689;28;20069;-70